Skip Navigation Links Skip Navigation Links

Current Weather

Burbank-Glendale-Pasadena Bob Hope Fld, Burbank, Calif.

For information only: do not use for flight planning or navigation.
Latest weather
Observation time Tuesday, October 19, 2021 1:53 AM PDT
Local time Tuesday, October 19, 2021 2:05 AM PDT
Flight conditions Visual Meteorological Conditions
Winds
Wind speed calm
Visibility 10 mi.
Sky condition
Ceiling unlimited
Sky clear
Temperature 52°F
Dewpoint 44°F
Altimeter 29.99 in.Hg
Pressure change last 3 hours0.00 in.Hg
Pressure falling more slowly
Derived measurements
Relative humidity 74%
Density altitude 376 ft.
Sea-level pressure 29.96 in.Hg
Remarks
Automated weather observing station with precipitation discriminator.
METAR KBUR 190853Z 00000KT 10SM CLR 11/07 A2999 RMK AO2 SLP147 T01110067 56001

Settings

Location code

InnerDrive.Weather 4.0.6770.0 Release CLR 4.0.30319.42000
Copyright ©2018 Inner Drive Technology. All rights reserved. Portions Copyright ©1986-2018 David Braverman.

Find weather

Site navigation


Skip Navigation Links

Place info

Page info

PayPal - The safer, easier way to pay online!

Return home.

Copyright ©2021 Inner Drive Technology. Purveyors of fine, hand-crafted computer software. Page printed 2021-10-19T09:05:26 UTC.